Time;durP1;ratioP1;P1;durP2;ratioP2;P2;SDS_P1;SDS_P2;PMS_P1;PMS_P2;Temp;Humidity;BMP_temperature;BMP_pressure;BME280_temperature;BME280_humidity;BME280_pressure;Samples;Min_cycle;Max_cycle;Signal;HPM_P1;HPM_P2
2022/09/07 00:03:01;;;;;;;4.37;1.17;;;;;;;21.05;62.54;96514.84;10557505;28;20111;-27
2022/09/07 00:08:01;;;;;;;4.05;0.90;;;;;;;21.00;62.74;96504.75;10548983;28;20410;-26
2022/09/07 00:13:02;;;;;;;2.90;1.47;;;;;;;21.04;62.53;96508.91;10565192;28;20067;-27
2022/09/07 00:18:02;;;;;;;3.50;1.65;;;;;;;21.05;62.76;96507.22;10556909;28;20043;-27
2022/09/07 00:23:03;;;;;;;2.53;1.10;;;;;;;21.04;62.54;96496.19;10556613;28;20105;-26
2022/09/07 00:28:04;;;;;;;2.40;1.47;;;;;;;21.14;62.36;96490.09;10561944;28;20282;-26
2022/09/07 00:33:04;;;;;;;3.13;1.10;;;;;;;21.17;62.42;96492.63;10557002;28;20301;-26
2022/09/07 00:38:05;;;;;;;4.97;1.10;;;;;;;21.22;62.08;96495.91;10560051;28;20035;-27
2022/09/07 00:43:05;;;;;;;1.73;0.90;;;;;;;21.22;62.04;96498.47;10555901;28;20069;-27
2022/09/07 00:48:15;;;;;;;3.75;1.20;;;;;;;21.19;62.26;96495.97;10557825;28;20395;-27
2022/09/07 00:53:21;;;;;;;2.55;1.17;;;;;;;21.19;62.04;96488.34;10557769;28;20398;-26
2022/09/07 00:58:22;;;;;;;3.70;1.20;;;;;;;21.15;62.31;96496.03;10556396;28;20407;-27
2022/09/07 01:03:27;;;;;;;1.92;0.98;;;;;;;21.14;62.30;96496.91;10549176;28;20027;-27
2022/09/07 01:08:28;;;;;;;2.65;1.20;;;;;;;21.19;62.27;96505.31;10555726;28;20492;-27
2022/09/07 01:13:28;;;;;;;4.25;1.30;;;;;;;21.21;62.23;96501.88;10559708;28;20040;-27
2022/09/07 01:18:41;;;;;;;2.60;1.13;;;;;;;21.23;62.08;96507.78;10554454;28;20039;-26
2022/09/07 01:24:06;;;;;;;1.35;0.93;;;;;;;21.24;62.03;96516.28;10544194;28;20488;-27
2022/09/07 01:29:11;;;;;;;3.35;1.13;;;;;;;21.22;62.13;96512.91;10554127;28;20032;-27
2022/09/07 01:34:23;;;;;;;2.75;1.20;;;;;;;21.23;62.09;96514.59;10560122;28;20737;-25
2022/09/07 01:39:33;;;;;;;2.03;0.90;;;;;;;21.14;62.47;96509.63;10555637;28;20044;-27
2022/09/07 01:44:45;;;;;;;2.42;0.80;;;;;;;21.14;62.41;96507.09;10550358;28;20034;-26
2022/09/07 01:50:00;;;;;;;2.25;1.20;;;;;;;21.08;62.52;96523.28;10543665;28;20044;-27
2022/09/07 01:55:08;;;;;;;4.93;1.38;;;;;;;21.04;62.70;96529.28;10555346;28;20454;-26
2022/09/07 02:00:12;;;;;;;3.75;0.90;;;;;;;21.08;62.42;96530.06;10550650;28;20031;-27
2022/09/07 02:05:15;;;;;;;5.35;2.30;;;;;;;21.11;62.40;96520.69;10557148;28;20732;-26
2022/09/07 02:10:23;;;;;;;3.47;1.00;;;;;;;21.13;62.40;96524.06;10555769;28;20039;-27
2022/09/07 02:15:42;;;;;;;5.43;1.40;;;;;;;21.09;62.50;96519.88;10550719;28;20411;-27
2022/09/07 02:20:47;;;;;;;2.40;1.30;;;;;;;21.07;62.47;96515.66;10541736;28;20040;-27
2022/09/07 02:25:55;;;;;;;4.38;1.10;;;;;;;20.94;62.70;96507.34;10562235;28;20031;-26
2022/09/07 02:30:56;;;;;;;3.13;1.20;;;;;;;21.01;62.66;96524.22;10547389;28;20039;-27
2022/09/07 02:35:56;;;;;;;4.60;1.87;;;;;;;21.01;62.45;96521.69;10552017;28;20028;-27
2022/09/07 02:40:59;;;;;;;3.38;1.20;;;;;;;21.06;62.38;96517.34;10556542;28;20285;-26
2022/09/07 02:46:16;;;;;;;3.88;1.33;;;;;;;20.99;62.63;96514.94;10553485;28;20048;-26
2022/09/07 02:51:42;;;;;;;5.53;1.48;;;;;;;21.16;62.12;96526.59;10556149;28;20100;-27
2022/09/07 02:56:58;;;;;;;2.67;1.37;;;;;;;21.16;62.12;96518.94;10548272;28;20122;-27
2022/09/07 03:02:17;;;;;;;3.35;1.20;;;;;;;21.07;62.73;96524.13;10543753;28;20046;-26
2022/09/07 03:07:38;;;;;;;3.85;1.20;;;;;;;21.10;62.58;96526.66;10556231;28;20036;-26
2022/09/07 03:12:41;;;;;;;2.08;1.10;;;;;;;21.10;62.58;96539.38;10550611;28;20047;-26
2022/09/07 03:17:42;;;;;;;4.30;1.77;;;;;;;21.03;62.84;96522.50;10540368;28;20038;-26
2022/09/07 03:22:45;;;;;;;3.42;1.10;;;;;;;21.02;62.87;96541.19;10550568;28;20128;-26
2022/09/07 03:27:46;;;;;;;4.65;1.30;;;;;;;20.99;63.25;96540.38;10561105;28;20042;-26
2022/09/07 03:32:46;;;;;;;5.45;2.53;;;;;;;21.02;63.02;96541.19;10555455;28;20028;-26
2022/09/07 03:37:47;;;;;;;6.63;1.60;;;;;;;21.07;63.00;96544.50;10561844;28;20039;-27
2022/09/07 03:42:49;;;;;;;3.97;1.40;;;;;;;21.12;62.55;96534.25;10562787;28;20051;-26
2022/09/07 03:47:49;;;;;;;5.03;1.70;;;;;;;21.05;62.87;96527.59;10540724;28;20510;-26
2022/09/07 03:52:50;;;;;;;3.55;1.33;;;;;;;21.03;63.18;96547.09;10560283;28;20092;-27
2022/09/07 03:57:50;;;;;;;2.43;1.20;;;;;;;21.06;62.94;96542.00;10556306;28;20043;-28
2022/09/07 04:02:51;;;;;;;4.90;1.50;;;;;;;21.05;63.30;96543.69;10549513;28;20028;-28
2022/09/07 04:07:51;;;;;;;3.47;1.33;;;;;;;21.06;63.14;96550.44;10562977;28;20042;-27
2022/09/07 04:12:51;;;;;;;3.23;1.37;;;;;;;21.09;63.20;96552.97;10567280;28;20465;-27
2022/09/07 04:17:52;;;;;;;4.27;1.37;;;;;;;21.10;63.13;96559.75;10548203;28;20035;-27
2022/09/07 04:22:52;;;;;;;4.73;1.27;;;;;;;21.05;63.74;96569.13;10554752;28;20598;-28
2022/09/07 04:27:54;;;;;;;6.80;1.58;;;;;;;21.13;63.57;96564.78;10521021;28;20028;-27
2022/09/07 04:32:55;;;;;;;4.82;1.67;;;;;;;21.15;63.33;96560.50;10540363;28;20051;-28
2022/09/07 04:37:55;;;;;;;4.87;1.57;;;;;;;21.12;63.77;96555.47;10547469;28;20032;-26
2022/09/07 04:42:55;;;;;;;7.10;1.87;;;;;;;21.13;63.77;96559.69;10527878;28;20101;-28
2022/09/07 04:47:56;;;;;;;7.77;1.97;;;;;;;21.14;63.76;96558.00;10530360;28;20035;-27
2022/09/07 04:52:56;;;;;;;5.20;2.67;;;;;;;21.10;64.08;96562.28;10534412;28;20028;-27
2022/09/07 04:57:57;;;;;;;6.15;2.20;;;;;;;21.06;64.65;96563.19;10552057;28;20042;-27
2022/09/07 05:02:57;;;;;;;6.22;2.10;;;;;;;21.10;64.42;96564.84;10527502;28;20706;-28
2022/09/07 05:07:57;;;;;;;5.13;2.03;;;;;;;21.10;64.39;96566.53;10541878;28;20031;-28
2022/09/07 05:12:58;;;;;;;3.80;2.07;;;;;;;21.14;64.38;96556.28;10557067;28;20038;-29
2022/09/07 05:17:59;;;;;;;2.53;1.33;;;;;;;21.17;64.50;96561.34;10556989;28;20046;-28
2022/09/07 05:22:59;;;;;;;5.50;2.20;;;;;;;21.15;64.30;96565.59;10553499;28;20476;-28
2022/09/07 05:27:59;;;;;;;3.93;1.93;;;;;;;21.14;64.03;96558.00;10558960;28;20024;-30
2022/09/07 05:33:00;;;;;;;4.93;1.80;;;;;;;21.07;64.68;96557.22;10555352;28;20031;-27
2022/09/07 05:38:01;;;;;;;4.25;1.40;;;;;;;21.05;64.73;96565.75;10556679;28;20080;-27
2022/09/07 05:43:01;;;;;;;7.53;1.70;;;;;;;21.03;64.87;96570.88;10555692;27;20047;-28
2022/09/07 05:48:02;;;;;;;5.95;1.40;;;;;;;21.02;64.90;96570.88;10548309;28;20121;-27
2022/09/07 05:53:02;;;;;;;4.80;2.10;;;;;;;21.01;64.98;96577.69;10555561;28;20521;-27
2022/09/07 05:58:03;;;;;;;4.50;1.48;;;;;;;20.95;65.27;96559.94;10549967;28;20040;-27
2022/09/07 06:03:04;;;;;;;4.85;1.95;;;;;;;21.13;64.94;96574.97;10545574;28;20494;-28
2022/09/07 06:08:04;;;;;;;6.18;2.00;;;;;;;21.17;64.67;96576.63;10556790;28;20404;-28
2022/09/07 06:13:04;;;;;;;7.10;1.60;;;;;;;21.12;64.73;96565.66;10547524;28;20033;-28
2022/09/07 06:18:05;;;;;;;4.17;2.13;;;;;;;21.10;64.90;96577.56;10555314;28;20036;-27
2022/09/07 06:23:06;;;;;;;5.37;2.30;;;;;;;21.09;65.15;96580.13;10553059;28;20035;-28
2022/09/07 06:28:06;;;;;;;3.83;1.65;;;;;;;21.07;65.70;96584.41;10554351;28;20040;-28
2022/09/07 06:33:07;;;;;;;4.15;1.33;;;;;;;21.08;65.35;96581.84;10554293;28;20130;-27
2022/09/07 06:38:07;;;;;;;6.80;1.87;;;;;;;21.10;65.62;96592.00;10553345;28;20032;-28
2022/09/07 06:43:08;;;;;;;6.00;1.43;;;;;;;21.09;65.59;96601.34;10547274;28;20293;-29
2022/09/07 06:48:08;;;;;;;5.45;2.00;;;;;;;21.10;65.66;96610.66;10554076;27;20436;-28
2022/09/07 06:53:08;;;;;;;2.87;1.50;;;;;;;21.23;65.16;96617.28;10554545;28;20061;-29
2022/09/07 06:58:09;;;;;;;6.17;1.67;;;;;;;21.33;64.83;96607.81;10552681;28;20035;-28
2022/09/07 07:03:09;;;;;;;5.73;2.20;;;;;;;21.20;65.45;96607.13;10548605;28;20045;-27
2022/09/07 07:08:09;;;;;;;3.17;1.83;;;;;;;21.17;65.66;96597.00;10556439;28;20080;-28
2022/09/07 07:13:10;;;;;;;2.97;1.77;;;;;;;21.19;65.36;96605.47;10554495;28;20042;-28
2022/09/07 07:18:12;;;;;;;4.33;1.67;;;;;;;21.18;65.33;96601.22;10546203;28;20085;-27
2022/09/07 07:23:12;;;;;;;5.30;1.85;;;;;;;21.19;65.31;96599.50;10549520;28;20347;-28
2022/09/07 07:28:13;;;;;;;3.77;1.90;;;;;;;21.23;65.12;96604.53;10554009;28;20081;-29
2022/09/07 07:33:13;;;;;;;3.03;2.00;;;;;;;21.30;64.73;96612.97;10551206;28;20392;-27
2022/09/07 07:38:14;;;;;;;2.70;1.30;;;;;;;21.46;63.49;96615.28;10553237;28;20047;-27
2022/09/07 07:43:14;;;;;;;2.83;1.60;;;;;;;21.58;63.12;96634.66;10555094;28;20402;-31
2022/09/07 07:48:14;;;;;;;4.53;1.60;;;;;;;21.59;63.01;96642.28;10553285;28;20028;-27
2022/09/07 07:53:15;;;;;;;3.20;1.40;;;;;;;21.53;63.36;96644.06;10551096;28;20590;-28
2022/09/07 07:58:16;;;;;;;2.38;1.30;;;;;;;21.43;63.82;96650.13;10550602;28;20031;-27
2022/09/07 08:03:17;;;;;;;3.45;1.25;;;;;;;21.50;63.34;96634.78;10550276;28;20510;-28
2022/09/07 08:08:17;;;;;;;2.53;2.15;;;;;;;21.65;62.81;96639.66;10554725;28;20563;-27
2022/09/07 08:13:18;;;;;;;3.33;1.13;;;;;;;21.67;62.74;96640.53;10558622;28;20079;-28
2022/09/07 08:18:19;;;;;;;4.57;1.35;;;;;;;21.74;62.39;96631.91;10545646;28;20024;-27
2022/09/07 08:23:19;;;;;;;2.07;1.00;;;;;;;21.77;61.95;96631.88;10555481;28;20500;-27
2022/09/07 08:28:24;;;;;;;2.53;1.35;;;;;;;21.79;62.07;96625.03;10555304;28;20035;-27
2022/09/07 08:33:25;;;;;;;2.67;1.27;;;;;;;21.73;62.32;96637.88;10559759;28;20040;-28
2022/09/07 08:38:28;;;;;;;3.50;1.30;;;;;;;21.64;62.66;96634.59;10562215;28;20412;-28
2022/09/07 08:43:56;;;;;;;1.73;1.10;;;;;;;21.53;63.02;96632.19;10559275;28;20035;-28
2022/09/07 08:48:58;;;;;;;2.75;1.33;;;;;;;21.75;62.41;96637.84;10557673;28;20031;-27
2022/09/07 08:54:00;;;;;;;1.83;1.30;;;;;;;21.75;62.16;96625.09;10558231;28;20128;-28
2022/09/07 08:59:12;;;;;;;4.63;1.67;;;;;;;21.58;62.75;96620.22;10559588;28;20035;-27
2022/09/07 09:04:25;;;;;;;1.10;1.00;;;;;;;21.64;62.48;96620.13;10560328;28;20082;-28
2022/09/07 09:09:44;;;;;;;1.80;0.90;;;;;;;21.50;62.94;96614.41;10559222;28;20035;-27
2022/09/07 09:15:05;;;;;;;2.88;1.40;;;;;;;21.64;62.67;96620.13;10552660;28;20085;-27
2022/09/07 09:20:18;;;;;;;1.98;0.90;;;;;;;21.72;62.08;96608.16;10536034;28;20140;-27
2022/09/07 09:25:29;;;;;;;2.42;1.20;;;;;;;21.53;62.80;96609.25;10561497;28;20031;-27
2022/09/07 09:30:30;;;;;;;3.08;1.27;;;;;;;21.46;62.84;96602.53;10551128;28;20044;-28
2022/09/07 09:35:33;;;;;;;2.75;1.17;;;;;;;21.64;62.51;96604.84;10554832;28;20031;-28
2022/09/07 09:40:35;;;;;;;1.30;0.98;;;;;;;21.46;62.87;96597.44;10558233;28;20089;-28
2022/09/07 09:45:44;;;;;;;1.70;1.38;;;;;;;21.40;63.48;96600.06;10553173;28;20023;-27
2022/09/07 09:50:49;;;;;;;2.42;1.00;;;;;;;21.54;63.14;96592.25;10546708;28;20097;-28
2022/09/07 09:55:51;;;;;;;2.03;1.30;;;;;;;21.39;63.33;96575.47;10553798;27;20419;-28
2022/09/07 10:00:55;;;;;;;1.70;1.00;;;;;;;21.37;63.30;96584.84;10546195;28;20043;-28
2022/09/07 10:05:56;;;;;;;2.28;1.15;;;;;;;21.48;63.23;96577.88;10556566;28;20020;-27
2022/09/07 10:11:06;;;;;;;1.38;1.17;;;;;;;21.57;62.80;96572.66;10556131;28;20024;-28
2022/09/07 10:16:09;;;;;;;1.77;1.13;;;;;;;21.67;62.42;96570.88;10554441;28;20047;-27
2022/09/07 10:21:24;;;;;;;1.35;1.05;;;;;;;21.68;62.45;96565.75;10553392;28;20088;-28
2022/09/07 10:26:29;;;;;;;1.88;1.20;;;;;;;21.73;62.10;96563.97;10555289;28;20039;-27
2022/09/07 10:31:30;;;;;;;2.15;1.13;;;;;;;21.48;62.78;96557.50;10550344;28;20561;-27
2022/09/07 10:36:51;;;;;;;2.40;0.90;;;;;;;21.47;62.86;96548.19;10553155;28;20131;-27
2022/09/07 10:42:03;;;;;;;1.55;0.90;;;;;;;21.57;62.60;96533.63;10535315;28;20040;-27
2022/09/07 10:47:37;;;;;;;1.65;0.88;;;;;;;21.42;63.00;96514.31;10553375;28;20402;-26
2022/09/07 10:52:51;;;;;;;2.85;1.15;;;;;;;21.73;62.39;96518.09;10554112;28;20043;-28
2022/09/07 10:58:00;;;;;;;2.60;1.38;;;;;;;21.76;61.83;96512.97;10540555;28;20032;-28
2022/09/07 11:03:09;;;;;;;3.25;1.30;;;;;;;21.59;62.29;96514.91;10540965;28;20031;-27
2022/09/07 11:08:32;;;;;;;4.38;1.10;;;;;;;21.52;62.58;96509.91;10556759;28;20061;-28
2022/09/07 11:13:38;;;;;;;2.63;1.17;;;;;;;21.65;62.33;96514.81;10551256;28;20035;-27
2022/09/07 11:18:45;;;;;;;6.60;1.53;;;;;;;21.63;63.12;96502.97;10550066;28;20032;-28
2022/09/07 11:23:53;;;;;;;4.20;1.40;;;;;;;21.74;62.23;96506.19;10553259;28;20110;-27
2022/09/07 11:28:59;;;;;;;4.18;1.52;;;;;;;21.51;62.77;96506.53;10550353;28;20032;-27
2022/09/07 11:34:09;;;;;;;10.77;1.30;;;;;;;21.78;62.93;96501.03;10547424;28;20613;-28
2022/09/07 11:39:17;;;;;;;6.57;1.73;;;;;;;21.85;62.71;96494.97;10551407;28;20491;-28
2022/09/07 11:44:28;;;;;;;5.80;1.42;;;;;;;21.85;62.41;96487.31;10551986;28;20919;-27
2022/09/07 11:49:29;;;;;;;1.80;1.20;;;;;;;21.63;62.54;96485.94;10557554;28;20031;-28
2022/09/07 11:54:38;;;;;;;1.75;1.15;;;;;;;21.57;62.43;96480.13;10560292;28;20523;-27
2022/09/07 12:00:00;;;;;;;1.80;1.10;;;;;;;21.51;62.48;96465.78;10534700;28;20039;-28
2022/09/07 12:05:32;;;;;;;11.27;2.78;;;;;;;21.63;62.98;96457.91;10564182;27;20461;-28
2022/09/07 12:10:38;;;;;;;5.10;2.05;;;;;;;21.50;62.65;96458.16;10553066;28;20059;-28
2022/09/07 12:16:05;;;;;;;8.10;2.40;;;;;;;21.62;62.51;96452.84;10540391;28;20032;-27
2022/09/07 12:21:28;;;;;;;14.02;3.72;;;;;;;21.80;63.43;96463.59;10556792;28;20043;-27
2022/09/07 12:26:31;;;;;;;9.15;2.25;;;;;;;21.80;62.77;96443.22;10561005;28;20040;-28
2022/09/07 12:31:50;;;;;;;10.75;2.78;;;;;;;21.84;62.71;96434.66;10558971;28;20060;-29
2022/09/07 12:36:50;;;;;;;6.70;2.38;;;;;;;21.84;62.63;96436.38;10546278;28;20126;-27
2022/09/07 12:42:13;;;;;;;10.20;2.63;;;;;;;21.88;62.59;96431.19;10560899;28;20036;-27
2022/09/07 12:47:13;;;;;;;6.80;2.08;;;;;;;21.76;62.59;96426.31;10555836;28;20241;-27
2022/09/07 12:52:46;;;;;;;7.85;2.22;;;;;;;21.68;62.62;96423.06;10558583;28;20044;-28
2022/09/07 12:58:08;;;;;;;4.75;1.80;;;;;;;21.77;62.86;96406.75;10542198;28;20028;-27
2022/09/07 13:03:39;;;;;;;6.78;2.25;;;;;;;21.73;62.17;96411.06;10554066;28;20031;-27
2022/09/07 13:09:07;;;;;;;6.22;1.70;;;;;;;21.84;62.83;96404.09;10545436;28;20518;-27
2022/09/07 13:14:14;;;;;;;5.07;1.80;;;;;;;21.94;62.48;96394.53;10553198;28;20027;-28
2022/09/07 13:19:35;;;;;;;4.75;1.52;;;;;;;21.92;62.15;96388.63;10557754;28;20564;-27
2022/09/07 13:24:49;;;;;;;3.65;1.38;;;;;;;21.90;62.08;96377.63;10555085;28;20037;-28
2022/09/07 13:30:03;;;;;;;3.63;1.88;;;;;;;21.95;62.41;96371.59;10539775;28;20107;-28
2022/09/07 13:35:23;;;;;;;4.80;1.75;;;;;;;21.97;62.23;96362.19;10557287;28;20028;-27
2022/09/07 13:40:31;;;;;;;3.05;1.60;;;;;;;21.90;62.15;96368.25;10557944;28;20130;-28
2022/09/07 13:46:10;;;;;;;2.80;1.60;;;;;;;21.91;62.25;96359.75;10556922;28;20122;-28
2022/09/07 13:51:19;;;;;;;3.35;1.38;;;;;;;21.91;62.13;96369.94;10485044;28;20706;-27
2022/09/07 13:56:25;;;;;;;2.30;1.60;;;;;;;21.99;61.85;96362.16;10554811;28;20032;-27
2022/09/07 14:01:27;;;;;;;5.35;1.65;;;;;;;22.04;61.42;96370.56;10547640;28;20078;-28
2022/09/07 14:06:30;;;;;;;3.95;1.45;;;;;;;22.04;61.23;96361.19;10558527;28;20533;-28
2022/09/07 14:11:41;;;;;;;2.78;1.38;;;;;;;22.04;61.36;96345.06;10554843;28;20051;-28
2022/09/07 14:16:50;;;;;;;2.95;1.25;;;;;;;22.04;61.24;96350.16;10543205;28;20080;-27
2022/09/07 14:22:04;;;;;;;4.70;2.08;;;;;;;22.03;61.03;96336.59;10552980;28;20036;-28
2022/09/07 14:27:37;;;;;;;1.90;1.20;;;;;;;22.03;60.98;96335.72;10554251;28;20042;-28
2022/09/07 14:32:37;;;;;;;2.67;1.83;;;;;;;22.05;60.74;96332.28;10550025;28;20043;-27
2022/09/07 14:37:38;;;;;;;2.05;1.13;;;;;;;22.04;60.85;96333.16;10551683;28;20036;-29
2022/09/07 14:42:40;;;;;;;3.40;1.50;;;;;;;22.01;60.97;96324.72;10543956;28;20676;-27
2022/09/07 14:47:42;;;;;;;6.00;1.48;;;;;;;22.05;60.48;96327.19;10555366;28;20028;-28
2022/09/07 14:52:50;;;;;;;2.95;1.20;;;;;;;22.09;60.35;96313.53;10553525;28;20032;-28
2022/09/07 14:58:12;;;;;;;2.75;1.52;;;;;;;22.06;60.32;96312.75;10552110;28;20044;-29
2022/09/07 15:03:25;;;;;;;2.90;1.20;;;;;;;21.85;60.99;96306.38;10549170;28;20048;-27
2022/09/07 15:08:40;;;;;;;2.97;1.45;;;;;;;21.84;60.85;96298.75;10554986;28;20059;-27
2022/09/07 15:13:43;;;;;;;15.38;2.40;;;;;;;21.71;61.78;96293.03;10539203;28;20135;-27
2022/09/07 15:18:55;;;;;;;8.30;1.42;;;;;;;21.67;61.89;96293.97;10543684;28;20047;-27
2022/09/07 15:24:00;;;;;;;4.05;1.25;;;;;;;21.63;61.75;96264.28;10548696;28;20040;-28
2022/09/07 15:29:00;;;;;;;1.30;1.15;;;;;;;21.64;62.17;96277.88;10549538;28;20414;-28
2022/09/07 15:34:01;;;;;;;4.33;1.40;;;;;;;21.78;61.02;96286.09;10553613;28;20035;-27
2022/09/07 15:39:03;;;;;;;2.30;1.05;;;;;;;21.88;60.60;96303.75;10549682;28;20046;-28
2022/09/07 15:44:03;;;;;;;2.10;1.10;;;;;;;21.92;60.50;96332.56;10549320;28;20073;-27
2022/09/07 15:49:03;;;;;;;3.73;1.20;;;;;;;21.79;61.11;96336.19;10539553;28;20384;-27
2022/09/07 15:54:04;;;;;;;4.17;1.40;;;;;;;21.55;61.88;96340.03;10552047;28;20289;-27
2022/09/07 15:59:05;;;;;;;1.45;1.00;;;;;;;21.54;62.14;96350.22;10510263;28;20040;-28
2022/09/07 16:04:05;;;;;;;4.72;1.23;;;;;;;21.55;62.11;96344.28;10515024;28;20085;-27
2022/09/07 16:09:06;;;;;;;4.25;1.20;;;;;;;21.49;62.32;96329.13;10518298;28;20544;-28
2022/09/07 16:14:10;;;;;;;2.45;1.35;;;;;;;21.46;62.42;96303.72;10524420;28;20036;-27
2022/09/07 16:19:14;;;;;;;3.03;1.20;;;;;;;21.55;62.25;96308.63;10524889;28;20032;-28
2022/09/07 16:24:16;;;;;;;2.28;1.23;;;;;;;21.65;62.11;96305.88;10513267;28;20082;-27
2022/09/07 16:29:16;;;;;;;2.45;1.40;;;;;;;21.55;62.24;96318.81;10514587;28;20028;-28
2022/09/07 16:34:20;;;;;;;4.00;1.70;;;;;;;21.55;62.65;96329.00;10531944;28;20047;-27
2022/09/07 16:39:20;;;;;;;2.20;1.38;;;;;;;21.55;62.78;96331.56;10550163;28;20119;-27
2022/09/07 16:44:20;;;;;;;4.10;3.07;;;;;;;21.53;64.54;96323.94;10559960;28;20566;-28
2022/09/07 16:49:21;;;;;;;6.38;3.95;;;;;;;21.55;64.46;96334.09;10543380;28;20301;-28
2022/09/07 16:54:21;;;;;;;6.55;1.80;;;;;;;21.47;65.35;96361.41;10539396;28;20085;-27
2022/09/07 16:59:25;;;;;;;3.77;1.77;;;;;;;21.48;65.45;96376.66;10551707;28;20044;-28
2022/09/07 17:04:26;;;;;;;4.72;1.52;;;;;;;21.46;65.46;96370.75;10541457;28;20282;-27
2022/09/07 17:09:27;;;;;;;4.10;1.38;;;;;;;21.50;65.47;96334.19;10536411;28;20032;-27
2022/09/07 17:14:27;;;;;;;3.50;1.20;;;;;;;21.50;65.74;96359.66;10537488;28;20043;-29
2022/09/07 17:19:28;;;;;;;2.53;1.50;;;;;;;21.53;65.69;96325.63;10555773;28;20092;-29
2022/09/07 17:24:29;;;;;;;2.97;1.70;;;;;;;21.49;66.09;96312.09;10557096;28;20503;-28
2022/09/07 17:29:33;;;;;;;2.58;1.50;;;;;;;21.41;66.03;96293.56;10533098;28;20449;-27
2022/09/07 17:34:33;;;;;;;2.95;1.80;;;;;;;21.48;66.36;96312.16;10549906;28;20058;-27
2022/09/07 17:39:34;;;;;;;2.70;1.33;;;;;;;21.47;66.51;96296.00;10550768;28;20042;-28
2022/09/07 17:44:34;;;;;;;1.57;1.17;;;;;;;21.48;66.50;96299.41;10532825;28;20285;-28
2022/09/07 17:49:35;;;;;;;4.10;1.53;;;;;;;21.46;66.72;96307.06;10529711;28;20050;-27
2022/09/07 17:54:35;;;;;;;4.03;1.40;;;;;;;21.45;66.72;96302.84;10532558;28;20024;-30
2022/09/07 17:59:36;;;;;;;4.25;1.58;;;;;;;21.49;66.68;96289.19;10531444;28;20289;-29
2022/09/07 18:04:36;;;;;;;2.63;1.90;;;;;;;21.47;66.85;96305.38;10531541;28;20055;-28
2022/09/07 18:09:36;;;;;;;5.47;1.67;;;;;;;21.46;67.02;96314.72;10559286;28;20491;-30
2022/09/07 18:14:37;;;;;;;3.78;2.15;;;;;;;21.44;66.84;96301.19;10545641;28;20044;-28
2022/09/07 18:19:37;;;;;;;3.20;1.40;;;;;;;21.43;66.72;96309.69;10543603;28;20427;-28
2022/09/07 18:24:39;;;;;;;3.40;1.55;;;;;;;21.45;66.87;96322.38;10546526;28;20392;-28
2022/09/07 18:29:39;;;;;;;1.50;1.40;;;;;;;21.40;66.64;96319.09;10551094;28;20027;-27
2022/09/07 18:34:40;;;;;;;5.53;1.67;;;;;;;21.43;66.59;96308.84;10524748;28;20039;-28
2022/09/07 18:39:40;;;;;;;4.83;1.90;;;;;;;21.40;66.77;96276.63;10542812;28;20288;-28
2022/09/07 18:44:40;;;;;;;4.00;2.13;;;;;;;21.47;66.63;96305.38;10535528;28;20438;-27
2022/09/07 18:49:41;;;;;;;2.00;1.20;;;;;;;21.44;66.33;96310.50;10546422;28;20098;-28
2022/09/07 18:54:41;;;;;;;3.83;1.40;;;;;;;21.40;66.79;96316.53;10550501;27;20040;-27
2022/09/07 18:59:41;;;;;;;1.47;1.20;;;;;;;21.39;67.04;96317.41;10533697;28;20052;-27
2022/09/07 19:04:43;;;;;;;3.53;1.70;;;;;;;21.30;67.49;96310.75;10548511;28;20426;-27
2022/09/07 19:09:43;;;;;;;3.70;1.70;;;;;;;21.27;67.72;96313.38;10553490;28;20028;-27
2022/09/07 19:14:43;;;;;;;2.07;1.40;;;;;;;21.23;67.90;96301.53;10536541;28;20028;-28
2022/09/07 19:19:44;;;;;;;3.80;1.60;;;;;;;21.22;67.64;96299.88;10561110;28;20087;-29
2022/09/07 19:24:44;;;;;;;2.00;1.43;;;;;;;21.21;67.78;96287.19;10543992;28;20035;-28
2022/09/07 19:29:44;;;;;;;2.93;1.43;;;;;;;21.30;67.24;96287.84;10542633;28;20032;-28
2022/09/07 19:34:46;;;;;;;2.50;1.40;;;;;;;21.35;67.11;96280.97;10551264;28;20035;-28
2022/09/07 19:39:48;;;;;;;2.13;1.15;;;;;;;21.32;67.10;96255.53;10549778;28;20412;-27
2022/09/07 19:44:49;;;;;;;4.22;1.73;;;;;;;21.32;67.01;96257.28;10549462;28;20031;-28
2022/09/07 19:49:51;;;;;;;3.45;1.42;;;;;;;21.26;66.90;96262.47;10548401;28;20523;-28
2022/09/07 19:54:51;;;;;;;1.50;1.35;;;;;;;21.21;67.26;96254.09;10552339;28;20429;-28
2022/09/07 19:59:52;;;;;;;2.40;1.50;;;;;;;21.18;67.38;96234.59;10547133;28;20024;-28
2022/09/07 20:04:53;;;;;;;2.35;1.50;;;;;;;21.15;67.82;96232.09;10551236;28;20082;-28
2022/09/07 20:09:53;;;;;;;2.75;1.60;;;;;;;21.13;67.94;96215.19;10560432;28;20024;-27
2022/09/07 20:14:53;;;;;;;2.63;1.50;;;;;;;21.20;67.12;96209.94;10551118;28;20028;-28
2022/09/07 20:19:54;;;;;;;5.33;1.80;;;;;;;21.26;66.94;96209.84;10556282;28;20047;-28
2022/09/07 20:24:54;;;;;;;4.70;1.77;;;;;;;21.19;67.08;96205.72;10561962;28;20277;-28
2022/09/07 20:29:54;;;;;;;4.30;2.00;;;;;;;21.17;67.46;96210.03;10553915;28;20028;-28
2022/09/07 20:34:56;;;;;;;2.17;1.98;;;;;;;21.15;67.30;96211.72;10555730;28;20028;-27
2022/09/07 20:39:56;;;;;;;2.60;1.70;;;;;;;21.17;67.01;96217.66;10560588;28;20098;-28
2022/09/07 20:44:56;;;;;;;2.37;1.60;;;;;;;21.27;67.04;96210.66;10547879;28;20032;-27
2022/09/07 20:49:57;;;;;;;3.30;1.80;;;;;;;21.21;66.91;96226.91;10559252;27;20507;-27
2022/09/07 20:54:57;;;;;;;3.30;2.00;;;;;;;21.20;67.13;96248.13;10557790;28;20039;-28
2022/09/07 20:59:57;;;;;;;1.93;1.30;;;;;;;21.20;66.81;96260.88;10555450;27;20096;-28
2022/09/07 21:04:58;;;;;;;2.73;1.57;;;;;;;21.25;66.57;96284.56;10562852;28;20200;-28
2022/09/07 21:09:58;;;;;;;2.05;1.45;;;;;;;21.24;66.87;96293.03;10559382;28;20035;-27
2022/09/07 21:14:59;;;;;;;2.83;1.40;;;;;;;21.15;67.75;96305.94;10556060;28;20035;-28
2022/09/07 21:19:59;;;;;;;2.07;1.77;;;;;;;21.13;67.93;96310.22;10555432;28;20080;-28
2022/09/07 21:25:01;;;;;;;3.73;2.33;;;;;;;21.09;68.35;96336.59;10559980;28;20039;-27
2022/09/07 21:30:01;;;;;;;4.03;1.92;;;;;;;21.03;68.58;96374.00;10552018;28;20035;-27
2022/09/07 21:35:01;;;;;;;3.43;1.90;;;;;;;21.02;69.02;96379.97;10555223;28;20043;-27
2022/09/07 21:40:04;;;;;;;4.33;2.07;;;;;;;21.01;69.11;96366.41;10558699;28;20035;-27
2022/09/07 21:45:06;;;;;;;2.92;1.73;;;;;;;21.02;69.15;96385.06;10554227;28;20385;-27
2022/09/07 21:50:06;;;;;;;4.63;2.10;;;;;;;21.10;68.89;96373.06;10554072;28;20545;-27
2022/09/07 21:55:07;;;;;;;3.90;1.60;;;;;;;21.14;68.55;96327.16;10555548;28;20146;-28
2022/09/07 22:00:09;;;;;;;3.67;1.73;;;;;;;21.10;69.06;96300.09;10547062;28;20028;-27
2022/09/07 22:05:09;;;;;;;4.20;2.03;;;;;;;21.09;68.93;96283.13;10559402;28;20149;-28
2022/09/07 22:10:10;;;;;;;3.70;1.60;;;;;;;21.09;69.11;96267.88;10555797;28;20038;-28
2022/09/07 22:15:11;;;;;;;3.28;1.67;;;;;;;21.12;69.09;96242.34;10554200;28;20089;-28
2022/09/07 22:20:11;;;;;;;2.47;1.43;;;;;;;21.07;69.20;96190.66;10553359;28;20040;-27
2022/09/07 22:25:12;;;;;;;3.10;1.60;;;;;;;21.04;69.35;96165.28;10558514;28;20932;-27
2022/09/07 22:30:12;;;;;;;2.85;1.70;;;;;;;21.05;69.21;96138.97;10550332;28;20122;-27
2022/09/07 22:35:14;;;;;;;2.00;1.42;;;;;;;21.04;69.40;96132.19;10555887;28;20122;-28
2022/09/07 22:40:14;;;;;;;4.40;1.55;;;;;;;21.14;68.58;96122.69;10552344;28;20023;-28
2022/09/07 22:45:15;;;;;;;2.80;1.42;;;;;;;21.09;69.01;96064.22;10552195;28;20027;-27
2022/09/07 22:50:15;;;;;;;2.47;1.20;;;;;;;21.09;69.21;96096.47;10550183;28;20027;-28
2022/09/07 22:55:16;;;;;;;2.30;1.35;;;;;;;21.06;68.91;96097.38;10549461;28;20043;-27
2022/09/07 23:00:16;;;;;;;3.03;1.10;;;;;;;21.00;69.25;96115.31;10546277;28;20473;-28
2022/09/07 23:05:16;;;;;;;2.43;1.27;;;;;;;21.03;69.14;96145.78;10555003;28;20451;-27
2022/09/07 23:10:17;;;;;;;2.13;1.33;;;;;;;21.01;69.09;96145.00;10553655;28;20292;-29
2022/09/07 23:15:18;;;;;;;1.85;1.00;;;;;;;21.01;68.88;96162.81;10550559;28;20078;-28
2022/09/07 23:20:18;;;;;;;1.77;1.10;;;;;;;20.98;68.67;96175.56;10551966;28;20036;-28
2022/09/07 23:25:20;;;;;;;3.10;2.40;;;;;;;21.02;68.40;96194.16;10553259;28;20047;-28
2022/09/07 23:30:20;;;;;;;1.83;1.10;;;;;;;21.01;68.43;96206.06;10555669;28;20031;-27
2022/09/07 23:35:20;;;;;;;2.07;1.03;;;;;;;20.92;68.57;96201.16;10552257;28;20036;-28